Time;durP1;ratioP1;P1;durP2;ratioP2;P2;SDS_P1;SDS_P2;PMS_P1;PMS_P2;Temp;Humidity;BMP_temperature;BMP_pressure;BME280_temperature;BME280_humidity;BME280_pressure;Samples;Min_cycle;Max_cycle;Signal;HPM_P1;HPM_P2
2022/07/08 00:02:24;;;;;;;10.82;5.47;;;;;;;;;;5089390;28;20056;-74
2022/07/08 00:04:56;;;;;;;10.73;4.30;;;;;;;;;;5090319;28;20058;-73
2022/07/08 00:07:26;;;;;;;11.60;4.18;;;;;;;;;;5054038;28;20063;-73
2022/07/08 00:09:57;;;;;;;10.88;4.30;;;;;;;;;;5071036;28;20055;-73
2022/07/08 00:12:28;;;;;;;6.93;4.35;;;;;;;;;;5089262;28;20079;-73
2022/07/08 00:14:58;;;;;;;9.23;4.30;;;;;;;;;;5087479;28;20090;-73
2022/07/08 00:17:28;;;;;;;10.98;4.90;;;;;;;;;;5089570;28;20040;-74
2022/07/08 00:19:58;;;;;;;7.53;4.75;;;;;;;;;;5070420;28;20055;-73
2022/07/08 00:22:28;;;;;;;19.65;5.22;;;;;;;;;;5089199;28;20051;-73
2022/07/08 00:24:59;;;;;;;10.20;6.18;;;;;;;;;;5087913;28;20530;-73
2022/07/08 00:27:28;;;;;;;11.80;5.93;;;;;;;;;;5088935;28;20521;-73
2022/07/08 00:29:58;;;;;;;10.63;6.00;;;;;;;;;;5089505;28;20054;-73
2022/07/08 00:32:29;;;;;;;12.98;6.15;;;;;;;;;;5089046;28;20044;-73
2022/07/08 00:34:59;;;;;;;10.60;5.40;;;;;;;;;;5088990;28;20052;-73
2022/07/08 00:37:29;;;;;;;13.57;5.38;;;;;;;;;;5089205;28;20526;-72
2022/07/08 00:40:01;;;;;;;16.10;6.78;;;;;;;;;;5088255;28;20048;-71
2022/07/08 00:42:31;;;;;;;10.43;5.60;;;;;;;;;;5089231;28;20047;-72
2022/07/08 00:45:01;;;;;;;13.88;5.82;;;;;;;;;;5088988;28;20048;-72
2022/07/08 00:47:31;;;;;;;16.42;6.28;;;;;;;;;;5088976;28;20051;-71
2022/07/08 00:50:01;;;;;;;17.52;6.50;;;;;;;;;;5087942;28;20453;-71
2022/07/08 00:52:32;;;;;;;11.65;6.20;;;;;;;;;;5088086;28;20048;-71
2022/07/08 00:55:03;;;;;;;16.00;6.57;;;;;;;;;;5070084;28;20044;-75
2022/07/08 00:57:35;;;;;;;11.45;6.07;;;;;;;;;;5088939;28;20044;-71
2022/07/08 01:00:08;;;;;;;12.55;6.45;;;;;;;;;;5088385;28;20056;-72
2022/07/08 01:02:38;;;;;;;14.77;6.22;;;;;;;;;;5087929;28;20055;-73
2022/07/08 01:05:09;;;;;;;11.35;6.03;;;;;;;;;;5088199;28;20052;-72
2022/07/08 01:07:38;;;;;;;;;;;;;;;;;;5088121;28;20048;-71
2022/07/08 01:10:09;;;;;;;9.95;5.55;;;;;;;;;;5086151;28;20310;-73
2022/07/08 01:12:39;;;;;;;11.32;4.80;;;;;;;;;;5087181;28;20044;-71
2022/07/08 01:15:10;;;;;;;10.50;5.05;;;;;;;;;;5087054;28;20046;-72
2022/07/08 01:17:44;;;;;;;10.63;6.18;;;;;;;;;;5087000;28;20047;-72
2022/07/08 01:20:15;;;;;;;13.55;5.05;;;;;;;;;;5086642;28;20077;-75
2022/07/08 01:22:45;;;;;;;16.05;4.65;;;;;;;;;;5088270;28;20040;-73
2022/07/08 01:25:15;;;;;;;7.70;4.40;;;;;;;;;;5087046;28;20436;-72
2022/07/08 01:27:45;;;;;;;9.00;4.75;;;;;;;;;;5088594;28;20059;-72
2022/07/08 01:30:15;;;;;;;6.22;4.07;;;;;;;;;;5088359;28;20051;-72
2022/07/08 01:32:45;;;;;;;9.55;4.45;;;;;;;;;;5088447;28;20430;-71
2022/07/08 01:35:14;;;;;;;;;;;;;;;;;;5087853;28;20056;-72
2022/07/08 01:37:44;;;;;;;8.38;3.97;;;;;;;;;;5088022;28;19923;-73
2022/07/08 01:40:14;;;;;;;10.45;5.00;;;;;;;;;;5087218;28;20075;-72
2022/07/08 01:42:44;;;;;;;;;;;;;;;;;;5089013;28;20048;-72
2022/07/08 01:45:14;;;;;;;9.82;4.18;;;;;;;;;;5087760;28;19931;-72
2022/07/08 01:47:44;;;;;;;9.52;4.75;;;;;;;;;;5087637;28;20347;-72
2022/07/08 01:50:13;;;;;;;10.68;4.63;;;;;;;;;;5068825;28;20060;-72
2022/07/08 01:52:43;;;;;;;;;;;;;;;;;;5088724;28;20052;-72
2022/07/08 01:55:12;;;;;;;6.65;4.40;;;;;;;;;;5087707;28;19930;-73
2022/07/08 01:57:42;;;;;;;;;;;;;;;;;;5088133;28;20422;-73
2022/07/08 02:00:12;;;;;;;6.28;3.80;;;;;;;;;;5087648;28;19924;-73
2022/07/08 02:02:47;;;;;;;7.90;3.83;;;;;;;;;;5087872;28;20048;-74
2022/07/08 02:05:18;;;;;;;9.60;4.30;;;;;;;;;;5087047;28;20430;-72
2022/07/08 02:07:47;;;;;;;12.27;4.68;;;;;;;;;;5087660;28;20056;-73
2022/07/08 02:10:17;;;;;;;7.18;4.15;;;;;;;;;;5087596;28;20040;-74
2022/07/08 02:12:47;;;;;;;;;;;;;;;;;;5088084;28;20055;-73
2022/07/08 02:15:17;;;;;;;9.40;5.30;;;;;;;;;;5087441;28;19928;-74
2022/07/08 02:17:47;;;;;;;11.88;5.70;;;;;;;;;;5087730;28;20052;-74
2022/07/08 02:20:17;;;;;;;9.35;5.38;;;;;;;;;;5087387;28;20051;-74
2022/07/08 02:22:47;;;;;;;11.45;4.97;;;;;;;;;;5068123;28;20450;-72
2022/07/08 02:25:16;;;;;;;;;;;;;;;;;;5087931;28;20044;-75
2022/07/08 02:27:46;;;;;;;12.02;4.53;;;;;;;;;;5067776;28;19924;-73
2022/07/08 02:30:15;;;;;;;;;;;;;;;;;;5087558;28;20052;-73
2022/07/08 02:32:45;;;;;;;14.82;5.07;;;;;;;;;;5087095;28;20379;-72
2022/07/08 02:35:14;;;;;;;;;;;;;;;;;;5087238;28;20059;-72
2022/07/08 02:37:44;;;;;;;12.18;5.18;;;;;;;;;;5087124;28;19923;-72
2022/07/08 02:40:14;;;;;;;8.05;4.22;;;;;;;;;;5085506;28;20056;-73
2022/07/08 02:42:43;;;;;;;;;;;;;;;;;;5087354;28;20055;-74
2022/07/08 02:45:13;;;;;;;8.77;4.28;;;;;;;;;;5068477;28;19931;-74
2022/07/08 02:47:43;;;;;;;9.77;4.32;;;;;;;;;;5087129;28;20043;-74
2022/07/08 02:50:12;;;;;;;;;;;;;;;;;;5087401;28;20055;-73
2022/07/08 02:52:41;;;;;;;11.20;4.25;;;;;;;;;;5086750;28;19924;-74
2022/07/08 02:55:11;;;;;;;;;;;;;;;;;;5087111;28;20051;-73
2022/07/08 02:57:40;;;;;;;8.13;4.13;;;;;;;;;;5086715;28;19931;-73
2022/07/08 03:00:10;;;;;;;;;;;;;;;;;;5068906;28;20063;-74
2022/07/08 03:02:40;;;;;;;12.60;7.07;;;;;;;;;;5086824;28;19938;-74
2022/07/08 03:05:10;;;;;;;;;;;;;;;;;;5086965;28;20514;-73
2022/07/08 03:07:40;;;;;;;6.60;4.03;;;;;;;;;;5086939;28;19931;-73
2022/07/08 03:10:09;;;;;;;;;;;;;;;;;;5087717;28;20048;-73
2022/07/08 03:12:39;;;;;;;12.18;4.55;;;;;;;;;;5087208;28;19924;-73
2022/07/08 03:15:09;;;;;;;9.77;4.68;;;;;;;;;;5086614;28;20052;-73
2022/07/08 03:17:39;;;;;;;8.65;5.15;;;;;;;;;;5086831;28;20491;-75
2022/07/08 03:20:09;;;;;;;11.25;4.95;;;;;;;;;;5086612;28;20055;-73
2022/07/08 03:22:39;;;;;;;12.00;5.63;;;;;;;;;;5086140;28;20044;-75
2022/07/08 03:25:09;;;;;;;10.98;5.47;;;;;;;;;;5086552;28;20044;-74
2022/07/08 03:27:39;;;;;;;10.90;4.72;;;;;;;;;;5086471;28;20533;-74
2022/07/08 03:30:09;;;;;;;;;;;;;;;;;;5087205;28;20515;-73
2022/07/08 03:32:38;;;;;;;8.35;3.72;;;;;;;;;;5086038;28;19924;-73
2022/07/08 03:35:09;;;;;;;9.55;3.72;;;;;;;;;;5086316;28;20417;-74
2022/07/08 03:37:43;;;;;;;10.00;3.78;;;;;;;;;;5087254;28;20043;-75
2022/07/08 03:43:02;;;;;;;9.50;3.58;;;;;;;;;;5086445;28;20048;-74
2022/07/08 03:45:32;;;;;;;14.25;4.80;;;;;;;;;;5086567;28;20044;-74
2022/07/08 03:48:03;;;;;;;8.88;4.15;;;;;;;;;;5086429;28;20048;-72
2022/07/08 03:50:33;;;;;;;6.32;3.38;;;;;;;;;;5085961;28;20051;-73
2022/07/08 03:53:02;;;;;;;;;;;;;;;;;;5086599;28;20056;-74
2022/07/08 03:55:32;;;;;;;7.00;3.80;;;;;;;;;;5086154;28;19925;-73
2022/07/08 03:58:02;;;;;;;9.45;4.22;;;;;;;;;;5067727;28;20059;-74
2022/07/08 04:00:32;;;;;;;9.10;4.35;;;;;;;;;;5086334;28;20059;-73
2022/07/08 04:03:07;;;;;;;13.90;4.63;;;;;;;;;;5086672;28;20044;-75
2022/07/08 04:05:38;;;;;;;10.07;3.83;;;;;;;;;;5086931;28;20044;-72
2022/07/08 04:08:07;;;;;;;8.55;4.10;;;;;;;;;;5086977;28;20052;-73
2022/07/08 04:10:37;;;;;;;10.95;3.53;;;;;;;;;;5089806;28;20510;-74
2022/07/08 04:13:07;;;;;;;8.10;3.40;;;;;;;;;;5089787;28;20052;-73
2022/07/08 04:15:36;;;;;;;;;;;;;;;;;;5090031;28;20063;-72
2022/07/08 04:18:06;;;;;;;8.85;3.33;;;;;;;;;;5089696;28;19947;-73
2022/07/08 04:20:37;;;;;;;8.75;3.45;;;;;;;;;;5089196;28;20044;-75
2022/07/08 04:23:08;;;;;;;14.20;3.53;;;;;;;;;;5089992;28;20044;-75
2022/07/08 04:25:38;;;;;;;8.07;3.22;;;;;;;;;;5089954;28;20039;-74
2022/07/08 04:28:07;;;;;;;;;;;;;;;;;;5089943;28;20494;-74
2022/07/08 04:30:37;;;;;;;10.02;4.55;;;;;;;;;;5089841;28;19920;-74
2022/07/08 04:33:08;;;;;;;9.30;3.67;;;;;;;;;;5070126;28;20055;-74
2022/07/08 04:35:39;;;;;;;12.00;4.40;;;;;;;;;;5070950;28;20055;-75
2022/07/08 04:38:09;;;;;;;9.80;4.00;;;;;;;;;;5089388;28;20047;-74
2022/07/08 04:40:39;;;;;;;;;;;;;;;;;;5071339;28;20063;-74
2022/07/08 04:43:09;;;;;;;7.70;4.28;;;;;;;;;;5088955;28;19920;-74
2022/07/08 04:45:39;;;;;;;12.80;4.10;;;;;;;;;;5089251;28;20055;-73
2022/07/08 04:48:09;;;;;;;7.75;3.53;;;;;;;;;;5088905;28;20044;-73
2022/07/08 04:50:39;;;;;;;13.23;4.30;;;;;;;;;;5088456;28;20044;-74
2022/07/08 04:53:08;;;;;;;12.95;4.03;;;;;;;;;;5089155;28;20048;-73
2022/07/08 04:55:38;;;;;;;;;;;;;;;;;;5089289;28;20503;-73
2022/07/08 04:58:07;;;;;;;14.65;4.40;;;;;;;;;;5088581;28;19924;-73
2022/07/08 05:00:37;;;;;;;11.70;4.05;;;;;;;;;;5088586;28;20484;-72
2022/07/08 05:03:07;;;;;;;10.88;4.38;;;;;;;;;;5088660;28;20055;-73
2022/07/08 05:05:37;;;;;;;9.77;3.95;;;;;;;;;;5088786;28;20036;-72
2022/07/08 05:08:07;;;;;;;10.05;3.65;;;;;;;;;;5088459;28;20048;-73
2022/07/08 05:10:36;;;;;;;;;;;;;;;;;;5089123;28;20044;-72
2022/07/08 05:13:07;;;;;;;7.03;3.63;;;;;;;;;;5088685;28;20275;-72
2022/07/08 05:15:37;;;;;;;8.82;3.58;;;;;;;;;;5088853;28;20048;-72
2022/07/08 05:18:06;;;;;;;;;;;;;;;;;;5089477;28;20436;-72
2022/07/08 05:20:36;;;;;;;11.27;3.75;;;;;;;;;;5087655;28;19927;-72
2022/07/08 05:23:08;;;;;;;7.03;3.30;;;;;;;;;;5088364;28;20444;-71
2022/07/08 05:25:38;;;;;;;8.98;3.65;;;;;;;;;;5088629;28;20406;-71
2022/07/08 05:28:08;;;;;;;8.80;3.55;;;;;;;;;;5088974;28;20458;-72
2022/07/08 05:30:37;;;;;;;;;;;;;;;;;;5088892;28;20048;-72
2022/07/08 05:33:08;;;;;;;11.73;4.43;;;;;;;;;;5088038;28;20302;-72
2022/07/08 05:35:38;;;;;;;;;;;;;;;;;;5088753;28;20052;-72
2022/07/08 05:38:07;;;;;;;11.43;4.40;;;;;;;;;;5088319;28;19931;-72
2022/07/08 05:40:37;;;;;;;19.17;3.90;;;;;;;;;;5070349;28;20426;-72
2022/07/08 05:43:07;;;;;;;9.60;3.58;;;;;;;;;;5088089;28;20059;-72
2022/07/08 05:45:37;;;;;;;12.13;4.38;;;;;;;;;;5069273;28;20048;-72
2022/07/08 05:48:07;;;;;;;11.75;4.32;;;;;;;;;;5087956;28;20055;-71
2022/07/08 05:50:37;;;;;;;11.18;4.65;;;;;;;;;;5069527;28;20055;-72
2022/07/08 05:53:07;;;;;;;12.43;4.45;;;;;;;;;;5087979;28;20071;-72
2022/07/08 05:55:36;;;;;;;;;;;;;;;;;;5088503;28;20044;-73
2022/07/08 05:58:06;;;;;;;9.27;3.78;;;;;;;;;;5087928;28;20291;-72
2022/07/08 06:00:37;;;;;;;18.92;4.53;;;;;;;;;;5087760;28;20040;-72
2022/07/08 06:03:07;;;;;;;11.82;4.40;;;;;;;;;;5087737;28;20044;-71
2022/07/08 06:05:38;;;;;;;13.65;4.57;;;;;;;;;;5087544;28;20047;-72
2022/07/08 06:08:07;;;;;;;8.82;4.28;;;;;;;;;;5087308;28;20052;-72
2022/07/08 06:10:37;;;;;;;;;;;;;;;;;;5087926;28;20059;-72
2022/07/08 06:13:07;;;;;;;11.70;3.83;;;;;;;;;;5087660;28;19920;-72
2022/07/08 06:15:36;;;;;;;9.18;3.92;;;;;;;;;;5087517;28;20044;-71
2022/07/08 06:18:06;;;;;;;7.60;3.40;;;;;;;;;;5087364;28;20055;-73
2022/07/08 06:20:35;;;;;;;;;;;;;;;;;;5088101;28;20055;-71
2022/07/08 06:23:06;;;;;;;9.45;3.40;;;;;;;;;;5087443;28;19934;-72
2022/07/08 06:25:36;;;;;;;9.32;3.45;;;;;;;;;;5087312;28;20051;-72
2022/07/08 06:28:06;;;;;;;15.57;3.85;;;;;;;;;;5086953;28;20047;-74
2022/07/08 06:30:36;;;;;;;;;;;;;;;;;;5087920;28;20059;-74
2022/07/08 06:33:06;;;;;;;7.55;2.60;;;;;;;;;;5087094;28;20440;-72
2022/07/08 06:35:37;;;;;;;6.35;2.33;;;;;;;;;;5087162;28;20044;-73
2022/07/08 06:38:08;;;;;;;4.03;1.83;;;;;;;;;;5086861;28;20051;-73
2022/07/08 06:40:37;;;;;;;7.10;2.30;;;;;;;;;;5087465;28;20047;-72
2022/07/08 06:43:08;;;;;;;2.80;1.80;;;;;;;;;;5087118;28;20044;-72
2022/07/08 06:45:38;;;;;;;6.40;2.10;;;;;;;;;;5068285;28;20052;-72
2022/07/08 06:48:09;;;;;;;6.75;2.35;;;;;;;;;;5087099;28;20094;-73
2022/07/08 06:50:38;;;;;;;5.63;2.00;;;;;;;;;;5086696;28;20044;-72
2022/07/08 06:53:08;;;;;;;6.47;2.15;;;;;;;;;;5069277;28;20244;-72
2022/07/08 06:55:37;;;;;;;;;;;;;;;;;;5087470;28;20047;-73
2022/07/08 06:58:07;;;;;;;7.57;2.15;;;;;;;;;;5087047;28;19923;-73
2022/07/08 07:00:38;;;;;;;3.92;1.80;;;;;;;;;;5087061;28;20044;-73
2022/07/08 07:03:07;;;;;;;;;;;;;;;;;;5087044;28;20075;-73
2022/07/08 07:05:37;;;;;;;5.70;2.10;;;;;;;;;;5087117;28;20662;-73
2022/07/08 07:08:06;;;;;;;;;;;;;;;;;;5087249;28;20056;-73
2022/07/08 07:10:36;;;;;;;5.22;2.42;;;;;;;;;;5086775;28;19934;-71
2022/07/08 07:13:05;;;;;;;;;;;;;;;;;;5087098;28;20059;-73
2022/07/08 07:15:35;;;;;;;7.38;1.80;;;;;;;;;;5085566;28;19938;-72
2022/07/08 07:18:08;;;;;;;6.10;1.83;;;;;;;;;;5086616;28;20056;-72
2022/07/08 07:20:38;;;;;;;6.35;2.28;;;;;;;;;;5087065;28;20043;-72
2022/07/08 07:23:07;;;;;;;;;;;;;;;;;;5069106;28;20063;-72
2022/07/08 07:25:38;;;;;;;5.70;1.80;;;;;;;;;;5086631;28;19954;-72
2022/07/08 07:28:07;;;;;;;4.65;1.90;;;;;;;;;;5086161;28;20040;-72
2022/07/08 07:30:37;;;;;;;5.47;2.00;;;;;;;;;;5086461;28;20056;-73
2022/07/08 07:33:15;;;;;;;4.88;1.85;;;;;;;;;;5086661;28;20159;-72
2022/07/08 07:35:45;;;;;;;;;;;;;;;;;;5086917;28;20051;-72
2022/07/08 07:38:15;;;;;;;4.03;1.50;;;;;;;;;;5086642;28;19920;-72
2022/07/08 07:40:44;;;;;;;;;;;;;;;;;;5086703;28;20036;-72
2022/07/08 07:43:14;;;;;;;4.38;1.80;;;;;;;;;;5086838;28;20311;-72
2022/07/08 07:45:44;;;;;;;;;;;;;;;;;;5090865;28;20044;-72
2022/07/08 07:48:14;;;;;;;14.65;2.50;;;;;;;;;;5090364;28;19931;-73
2022/07/08 07:50:44;;;;;;;4.75;1.92;;;;;;;;;;5090065;28;20055;-72
2022/07/08 07:53:14;;;;;;;;;;;;;;;;;;5091271;28;20422;-73
2022/07/08 07:55:44;;;;;;;3.92;1.58;;;;;;;;;;5090277;28;20409;-73
2022/07/08 07:58:13;;;;;;;;;;;;;;;;;;5090716;28;20055;-72
2022/07/08 08:00:43;;;;;;;5.78;1.88;;;;;;;;;;5090146;28;19931;-73
2022/07/08 08:03:12;;;;;;;3.08;2.05;;;;;;;;;;5090639;28;20052;-73
2022/07/08 08:05:42;;;;;;;;;;;;;;;;;;5090448;28;20418;-73
2022/07/08 08:08:13;;;;;;;3.72;1.60;;;;;;;;;;5089748;28;19924;-73
2022/07/08 08:10:44;;;;;;;4.78;1.63;;;;;;;;;;5089860;28;20063;-72
2022/07/08 08:13:15;;;;;;;2.85;1.52;;;;;;;;;;5089813;28;20052;-73
2022/07/08 08:15:44;;;;;;;;;;;;;;;;;;5089905;28;20063;-73
2022/07/08 08:18:14;;;;;;;3.75;1.92;;;;;;;;;;5089539;28;19923;-73
2022/07/08 08:20:43;;;;;;;;;;;;;;;;;;5089963;28;20048;-72
2022/07/08 08:23:13;;;;;;;4.90;1.70;;;;;;;;;;5089425;28;19923;-73
2022/07/08 08:25:50;;;;;;;5.07;1.88;;;;;;;;;;5089417;28;20040;-73
2022/07/08 08:28:19;;;;;;;;;;;;;;;;;;5089899;28;20514;-72
2022/07/08 08:30:49;;;;;;;7.82;2.75;;;;;;;;;;5089770;28;19930;-72
2022/07/08 08:33:18;;;;;;;3.72;2.50;;;;;;;;;;5089355;28;20055;-73
2022/07/08 08:35:49;;;;;;;4.65;1.80;;;;;;;;;;5089426;28;20059;-73
2022/07/08 08:38:19;;;;;;;;;;;;;;;;;;5089487;28;20114;-73
2022/07/08 08:40:53;;;;;;;4.13;1.75;;;;;;;;;;5089216;28;19924;-73
2022/07/08 08:43:23;;;;;;;2.58;1.70;;;;;;;;;;5089261;28;20480;-73
2022/07/08 08:45:54;;;;;;;4.10;1.80;;;;;;;;;;5089461;28;20491;-73
2022/07/08 08:48:26;;;;;;;4.70;1.70;;;;;;;;;;5054307;28;20055;-73
2022/07/08 08:50:57;;;;;;;7.47;1.90;;;;;;;;;;5088754;28;20055;-73
2022/07/08 08:53:30;;;;;;;4.07;2.13;;;;;;;;;;5089523;28;20052;-73
2022/07/08 08:56:01;;;;;;;6.63;1.95;;;;;;;;;;5088831;28;20506;-74
2022/07/08 08:58:33;;;;;;;4.15;1.80;;;;;;;;;;5088877;28;20044;-73
2022/07/08 09:01:02;;;;;;;;;;;;;;;;;;5087793;28;20051;-73
2022/07/08 09:03:32;;;;;;;8.25;1.90;;;;;;;;;;5088242;28;19927;-75
2022/07/08 09:06:06;;;;;;;4.85;2.40;;;;;;;;;;5087441;28;20048;-73
2022/07/08 09:08:36;;;;;;;3.70;2.28;;;;;;;;;;5088174;28;20052;-73
2022/07/08 09:11:07;;;;;;;3.35;1.50;;;;;;;;;;5089297;28;20059;-72
2022/07/08 09:13:37;;;;;;;4.18;1.83;;;;;;;;;;5088611;28;20052;-73
2022/07/08 09:16:10;;;;;;;6.18;2.78;;;;;;;;;;5088331;28;20063;-76
2022/07/08 09:18:40;;;;;;;9.18;2.22;;;;;;;;;;5069812;28;20048;-73
2022/07/08 09:21:11;;;;;;;7.72;1.73;;;;;;;;;;5054081;28;20055;-73
2022/07/08 09:23:41;;;;;;;4.22;1.83;;;;;;;;;;5088384;28;20048;-72
2022/07/08 09:26:11;;;;;;;5.65;1.73;;;;;;;;;;5088760;28;20050;-75
2022/07/08 09:28:44;;;;;;;7.55;1.95;;;;;;;;;;5088421;28;20052;-76
2022/07/08 09:31:16;;;;;;;7.85;1.98;;;;;;;;;;5087993;28;20044;-73
2022/07/08 09:33:46;;;;;;;2.78;1.70;;;;;;;;;;5069593;28;20060;-73
2022/07/08 09:36:23;;;;;;;6.07;1.80;;;;;;;;;;5070040;28;20044;-73
2022/07/08 09:38:52;;;;;;;;;;;;;;;;;;5088537;28;20040;-73
2022/07/08 09:41:22;;;;;;;5.75;1.80;;;;;;;;;;5088285;28;20390;-74
2022/07/08 09:43:56;;;;;;;4.43;1.95;;;;;;;;;;5088096;28;20399;-74
2022/07/08 09:46:36;;;;;;;4.20;1.55;;;;;;;;;;5069944;28;20048;-73
2022/07/08 09:49:07;;;;;;;6.72;1.83;;;;;;;;;;5088186;28;20067;-73
2022/07/08 09:51:37;;;;;;;;;;;;;;;;;;5088882;28;20059;-73
2022/07/08 09:54:10;;;;;;;6.30;2.00;;;;;;;;;;5088060;28;19931;-74
2022/07/08 09:56:40;;;;;;;5.75;2.25;;;;;;;;;;5087475;28;20444;-75
2022/07/08 09:59:09;;;;;;;;;;;;;;;;;;5088224;28;20051;-73
2022/07/08 10:01:39;;;;;;;5.53;2.08;;;;;;;;;;5088208;28;19924;-73
2022/07/08 10:04:10;;;;;;;4.15;1.45;;;;;;;;;;5088234;28;20048;-73
2022/07/08 10:06:40;;;;;;;5.22;2.30;;;;;;;;;;5086829;28;20063;-74
2022/07/08 10:09:10;;;;;;;;;;;;;;;;;;5088455;28;20043;-75
2022/07/08 10:11:40;;;;;;;5.25;2.00;;;;;;;;;;5087081;28;19923;-73
2022/07/08 10:14:10;;;;;;;7.05;2.95;;;;;;;;;;5087655;28;20411;-73
2022/07/08 10:16:41;;;;;;;2.67;1.83;;;;;;;;;;5087223;28;20051;-73
2022/07/08 10:19:16;;;;;;;5.07;1.65;;;;;;;;;;5087766;28;20051;-81
2022/07/08 10:21:52;;;;;;;6.07;2.72;;;;;;;;;;5068017;28;20044;-73
2022/07/08 10:24:30;;;;;;;4.20;1.80;;;;;;;;;;5087195;28;20075;-74
2022/07/08 10:27:02;;;;;;;4.55;1.73;;;;;;;;;;5087483;28;20516;-73
2022/07/08 10:29:33;;;;;;;3.97;1.73;;;;;;;;;;5085180;28;20044;-73
2022/07/08 10:32:04;;;;;;;6.57;1.98;;;;;;;;;;5086879;28;20045;-73
2022/07/08 10:34:36;;;;;;;7.65;1.80;;;;;;;;;;5085744;28;20099;-73
2022/07/08 10:37:07;;;;;;;4.20;2.42;;;;;;;;;;5087648;28;20479;-73
2022/07/08 10:39:42;;;;;;;9.52;5.40;;;;;;;;;;5069487;28;20066;-73
2022/07/08 10:42:13;;;;;;;4.43;2.20;;;;;;;;;;5088032;28;20051;-74
2022/07/08 10:44:46;;;;;;;8.27;3.25;;;;;;;;;;5069317;28;20051;-73
2022/07/08 10:47:32;;;;;;;8.43;3.15;;;;;;;;;;5086888;28;20043;-73
2022/07/08 10:50:09;;;;;;;5.22;1.95;;;;;;;;;;5086637;28;20458;-74
2022/07/08 10:52:41;;;;;;;6.03;2.20;;;;;;;;;;5086803;28;20059;-73
2022/07/08 10:55:16;;;;;;;5.70;2.17;;;;;;;;;;5087284;28;20395;-76
2022/07/08 10:57:55;;;;;;;13.52;2.40;;;;;;;;;;5087009;28;20071;-73
2022/07/08 11:00:27;;;;;;;5.13;1.70;;;;;;;;;;5086881;28;20036;-73
2022/07/08 11:02:59;;;;;;;4.47;1.88;;;;;;;;;;5086681;28;20044;-73
2022/07/08 11:05:42;;;;;;;7.68;2.25;;;;;;;;;;5086597;28;20048;-73
2022/07/08 11:08:26;;;;;;;6.05;1.80;;;;;;;;;;5086941;28;20048;-74
2022/07/08 11:10:56;;;;;;;6.82;1.88;;;;;;;;;;5087456;28;20490;-72
2022/07/08 11:13:26;;;;;;;4.88;1.85;;;;;;;;;;5087269;28;20414;-72
2022/07/08 11:16:01;;;;;;;4.80;1.80;;;;;;;;;;5085668;28;20092;-73
2022/07/08 11:18:31;;;;;;;9.20;2.05;;;;;;;;;;5087502;28;20056;-72
2022/07/08 11:21:02;;;;;;;6.00;2.03;;;;;;;;;;5090737;28;20052;-73
2022/07/08 11:23:33;;;;;;;3.65;1.58;;;;;;;;;;5090719;28;20044;-76
2022/07/08 11:26:03;;;;;;;8.52;2.05;;;;;;;;;;5090925;28;20040;-73
2022/07/08 11:28:35;;;;;;;;;;;;;;;;;;5091100;28;20504;-73
2022/07/08 11:31:17;;;;;;;9.35;1.92;;;;;;;;;;5090790;28;20271;-73
2022/07/08 11:33:48;;;;;;;10.07;2.33;;;;;;;;;;5090402;28;20059;-71
2022/07/08 11:36:19;;;;;;;23.02;3.50;;;;;;;;;;5090639;28;20052;-76
2022/07/08 11:38:51;;;;;;;10.18;2.83;;;;;;;;;;5090427;28;20055;-72
2022/07/08 11:41:21;;;;;;;6.80;2.15;;;;;;;;;;5090289;28;20044;-76
2022/07/08 11:43:51;;;;;;;;;;;;;;;;;;5090235;28;20114;-72
2022/07/08 11:46:23;;;;;;;15.77;3.60;;;;;;;;;;5090448;28;19943;-73
2022/07/08 11:48:54;;;;;;;15.48;3.40;;;;;;;;;;5091253;28;20040;-72
2022/07/08 11:51:23;;;;;;;6.95;2.33;;;;;;;;;;5090886;28;20051;-72
2022/07/08 11:53:53;;;;;;;16.00;2.97;;;;;;;;;;5090840;28;20052;-72
2022/07/08 11:56:23;;;;;;;;;;;;;;;;;;5090950;28;20044;-73
2022/07/08 11:58:52;;;;;;;13.65;3.17;;;;;;;;;;5090210;28;19924;-71
2022/07/08 12:01:22;;;;;;;;;;;;;;;;;;5089354;28;20142;-71
2022/07/08 12:03:52;;;;;;;6.25;1.67;;;;;;;;;;5088340;28;19923;-72
2022/07/08 12:06:27;;;;;;;7.35;1.98;;;;;;;;;;5072474;28;20052;-76
2022/07/08 12:08:57;;;;;;;18.75;3.00;;;;;;;;;;5090196;28;20052;-72
2022/07/08 12:11:27;;;;;;;24.45;4.25;;;;;;;;;;5071036;28;20062;-72
2022/07/08 12:13:56;;;;;;;;;;;;;;;;;;5090183;28;20052;-72
2022/07/08 12:16:28;;;;;;;4.53;2.65;;;;;;;;;;5089341;28;19931;-72
2022/07/08 12:18:59;;;;;;;12.60;3.03;;;;;;;;;;5089826;28;20048;-72
2022/07/08 12:21:30;;;;;;;29.92;4.57;;;;;;;;;;5089419;28;20048;-72
2022/07/08 12:24:02;;;;;;;3.83;1.73;;;;;;;;;;5089350;28;20052;-72
2022/07/08 12:26:33;;;;;;;7.63;2.00;;;;;;;;;;5089577;28;20044;-72
2022/07/08 12:29:16;;;;;;;7.78;1.80;;;;;;;;;;5089249;28;20063;-72
2022/07/08 12:31:47;;;;;;;9.20;1.90;;;;;;;;;;5071329;28;20044;-72
2022/07/08 12:34:19;;;;;;;4.57;2.00;;;;;;;;;;5089731;28;20056;-72
2022/07/08 12:36:51;;;;;;;4.57;1.70;;;;;;;;;;5089772;28;20426;-76
2022/07/08 12:39:23;;;;;;;8.55;1.67;;;;;;;;;;5070638;28;20051;-73
2022/07/08 12:42:00;;;;;;;2.70;1.25;;;;;;;;;;5089124;28;20052;-72
2022/07/08 12:44:39;;;;;;;7.38;1.70;;;;;;;;;;5089444;28;20060;-73
2022/07/08 12:47:11;;;;;;;8.15;1.60;;;;;;;;;;5089502;28;20048;-73
2022/07/08 12:49:43;;;;;;;2.33;1.50;;;;;;;;;;5089925;28;20057;-75
2022/07/08 12:52:14;;;;;;;12.07;2.30;;;;;;;;;;5088738;28;20040;-73
2022/07/08 12:54:44;;;;;;;10.57;1.80;;;;;;;;;;5089327;28;20036;-73
2022/07/08 12:57:15;;;;;;;4.00;1.80;;;;;;;;;;5089067;28;20044;-73
2022/07/08 12:59:45;;;;;;;;;;;;;;;;;;5055538;28;20051;-73
2022/07/08 13:02:15;;;;;;;5.90;1.63;;;;;;;;;;5089367;28;20302;-72
2022/07/08 13:04:45;;;;;;;5.68;1.92;;;;;;;;;;5088897;28;20051;-73
2022/07/08 13:07:14;;;;;;;5.93;1.77;;;;;;;;;;5088659;28;20063;-76
2022/07/08 13:09:45;;;;;;;5.75;2.28;;;;;;;;;;5088910;28;20138;-73
2022/07/08 13:12:16;;;;;;;4.35;1.98;;;;;;;;;;5088466;28;20063;-73
2022/07/08 13:14:45;;;;;;;8.18;2.05;;;;;;;;;;5088642;28;20063;-72
2022/07/08 13:17:15;;;;;;;8.50;2.05;;;;;;;;;;5089107;28;20474;-72
2022/07/08 13:19:46;;;;;;;8.38;2.10;;;;;;;;;;5088755;28;20414;-73
2022/07/08 13:22:15;;;;;;;3.95;1.77;;;;;;;;;;5088515;28;20048;-72
2022/07/08 13:24:45;;;;;;;6.68;1.75;;;;;;;;;;5088462;28;20058;-73
2022/07/08 13:27:15;;;;;;;5.03;1.75;;;;;;;;;;5088131;28;20382;-72
2022/07/08 13:29:45;;;;;;;5.15;1.48;;;;;;;;;;5069321;28;20048;-72
2022/07/08 13:32:15;;;;;;;4.65;1.60;;;;;;;;;;5088339;28;20510;-77
2022/07/08 13:34:45;;;;;;;11.55;1.80;;;;;;;;;;5087961;28;20380;-72
2022/07/08 13:37:35;;;;;;;3.75;1.63;;;;;;;;;;5087998;28;20503;-73
2022/07/08 13:40:06;;;;;;;5.25;1.48;;;;;;;;;;5088290;28;20055;-72
2022/07/08 13:42:36;;;;;;;4.43;1.60;;;;;;;;;;5087268;28;20051;-73
2022/07/08 13:45:05;;;;;;;;;;;;;;;;;;5088356;28;20051;-73
2022/07/08 13:47:35;;;;;;;9.35;2.03;;;;;;;;;;5088089;28;20379;-73
2022/07/08 13:50:05;;;;;;;;;;;;;;;;;;5088688;28;20483;-73
2022/07/08 13:52:34;;;;;;;4.55;2.13;;;;;;;;;;5088074;28;19928;-73
2022/07/08 13:55:06;;;;;;;10.85;2.75;;;;;;;;;;5087623;28;20047;-74
2022/07/08 13:57:37;;;;;;;20.33;2.97;;;;;;;;;;5087220;28;20403;-73
2022/07/08 14:00:07;;;;;;;5.28;1.58;;;;;;;;;;5087954;28;20518;-73
2022/07/08 14:02:40;;;;;;;6.95;1.67;;;;;;;;;;5091752;28;20059;-74
2022/07/08 14:05:11;;;;;;;4.25;1.52;;;;;;;;;;5087275;28;20144;-73
2022/07/08 14:07:41;;;;;;;9.50;1.85;;;;;;;;;;5087402;28;20055;-75
2022/07/08 14:10:12;;;;;;;12.65;1.85;;;;;;;;;;5088223;28;20054;-73
2022/07/08 14:12:41;;;;;;;3.70;1.20;;;;;;;;;;5087523;28;20063;-73
2022/07/08 14:15:11;;;;;;;6.40;1.83;;;;;;;;;;5087508;28;20056;-74
2022/07/08 14:17:46;;;;;;;4.70;1.50;;;;;;;;;;5087823;28;20055;-73
2022/07/08 14:20:16;;;;;;;4.45;1.50;;;;;;;;;;5087911;28;20047;-74
2022/07/08 14:22:46;;;;;;;6.47;1.58;;;;;;;;;;5087626;28;20055;-73
2022/07/08 14:25:17;;;;;;;6.47;1.42;;;;;;;;;;5087012;28;20052;-73
2022/07/08 14:27:48;;;;;;;27.90;3.20;;;;;;;;;;5087505;28;20044;-75
2022/07/08 14:30:17;;;;;;;;;;;;;;;;;;5087892;28;20055;-75
2022/07/08 14:32:46;;;;;;;4.70;1.80;;;;;;;;;;5087045;28;19924;-74
2022/07/08 14:35:16;;;;;;;;;;;;;;;;;;5087649;28;20114;-75
2022/07/08 14:37:46;;;;;;;6.80;1.80;;;;;;;;;;5087124;28;19924;-72
2022/07/08 14:40:16;;;;;;;18.60;2.30;;;;;;;;;;5087234;28;20530;-73
2022/07/08 14:42:45;;;;;;;;;;;;;;;;;;5087555;28;20490;-77
2022/07/08 14:45:15;;;;;;;4.97;1.38;;;;;;;;;;5087506;28;19924;-73
2022/07/08 14:47:44;;;;;;;;;;;;;;;;;;5087624;28;20052;-74
2022/07/08 14:50:14;;;;;;;5.30;1.33;;;;;;;;;;5087225;28;19931;-74
2022/07/08 14:52:44;;;;;;;7.78;4.00;;;;;;;;;;5086839;28;20050;-74
2022/07/08 14:55:15;;;;;;;6.75;1.90;;;;;;;;;;5087110;28;20048;-74
2022/07/08 14:57:45;;;;;;;8.02;1.33;;;;;;;;;;5086977;28;20056;-74
2022/07/08 15:00:15;;;;;;;10.25;2.30;;;;;;;;;;5086985;28;20807;-74
2022/07/08 15:02:45;;;;;;;5.55;1.60;;;;;;;;;;5087311;28;20044;-78
2022/07/08 15:05:14;;;;;;;;;;;;;;;;;;5087048;28;20060;-77
2022/07/08 15:07:44;;;;;;;4.25;1.35;;;;;;;;;;5086744;28;19927;-74
2022/07/08 15:10:14;;;;;;;;;;;;;;;;;;5087290;28;20529;-75
2022/07/08 15:12:44;;;;;;;11.57;1.80;;;;;;;;;;5068976;28;19928;-74
2022/07/08 15:15:13;;;;;;;8.65;1.75;;;;;;;;;;5087160;28;20693;-74
2022/07/08 15:17:43;;;;;;;9.77;2.10;;;;;;;;;;5087008;28;20048;-75
2022/07/08 15:20:13;;;;;;;13.80;2.47;;;;;;;;;;5086765;28;20055;-75
2022/07/08 15:22:43;;;;;;;6.20;1.73;;;;;;;;;;5086283;28;20036;-74